OIBL  Bandar Lengeh Airport

Add Bookmark

Bandar Lengeh, Iran

Status IATA
Operational BDH
Latitude Longitude
26° 31' 55" N 54° 49' 29" E
26.532000 54.824799
Local (DST + 5) UTC (GMT + 4)
Sep 16, 2014 01:52 Sep 16, 2014 09:22
Sunrise-Sunset Local UTC
Begin Civil Twilight 06:12 01:42
Sunrise 06:35 02:05
Sunset 06:55 14:25
End Civil Twilight 07:18 14:48

Current Weather

METAR Observed MVFR
OIBL 160900Z 09012KT 5000 HZ SKC 35/26 Q1003 Tue, Sep 16, 2014 @ 09:00 UTC
(22 Minutes ago)
Marginal Visual Flight Rules
Wind Visibility Clouds Conditions
090° at 12 knots (22 kph) 5000 meters
  • Clear skies
  • Haze
Temperatures Readings Precipitation
Current Temp 35°C (95°F)
Dewpoint 26°C (79°F)
Heat Index 45°C (113°F)
Humidity 60%
Altimeter 29.62"Hg
Sea Level Pressure 1003mb
Field Elevation 45.93'
None Recorded

Additional weather within a 92.6km radius of OIBL

Map ICAO Location
OIBS 74.8km S (202°)
OIBA 75.7km S (164°)
OIBK 83.9km W (270°)

24 Hour Weather History

Loading
-

24 Hour Weather Graphs

Loading
-

CheckWX.com is intended as a tool to help pilots better visualize weather data. It is not intended as a substitute for an official weather briefing obtained from a Flight Service Station. CheckWX.com does not meet the FAA requirements for an official pre-flight weather briefing. Therefore, it's important that pilots still call and obtain an official FSS pre-flight weather briefing.